Weather observations for the past three days for
San Jose Del Cabo
| Date | Time (mst) | Wind (mph) | Vis. (mi.) | Weather | Sky Cond. | Temperature (ºF) | Relative Humidity | Wind Chill (°F) | Heat Index (°F) | Pressure | Precipitation (in) | ||||||
|---|---|---|---|---|---|---|---|---|---|---|---|---|---|---|---|---|---|
| Air | Dwpt | 6 hour | altimeter (in) | sea level (mb) | 1 hr | 3 hr | 6 hr | ||||||||||
| Max. | Min. | ||||||||||||||||
| 09 | 16:53 | SE 12 | 10.00 | Clear | SKC | 91.4 | 28.4 | 10% | 87 | 29.8 | 1007.0 | ||||||
| 09 | 15:51 | SE 12 | 10.00 | Partly Cloudy | SCT250 | 91.4 | 33.8 | 13% | 87 | 29.8 | 0.0 | ||||||
| 09 | 14:48 | SE 16 | 10.00 | Clear | SKC | 93.2 | 32 | 11% | 89 | 29.81 | 0.0 | ||||||
| 09 | 13:47 | SE 23 | 10.00 | Clear and Breezy | SKC | 91.4 | 32 | 12% | 87 | 29.83 | 1007.8 | ||||||
| 09 | 12:51 | SE 18 | 10.00 | Clear | SKC | 91.4 | 33.8 | 13% | 87 | 29.85 | 0.0 | ||||||
| 09 | 11:50 | SE 16 | 10.00 | Clear | SKC | 91.4 | 35.6 | 14% | 87 | 29.86 | 0.0 | ||||||
| 09 | 10:51 | SE 14 | 10.00 | Clear | SKC | 91.4 | 35.6 | 14% | 87 | 29.86 | 1009.1 | ||||||
| 09 | 09:45 | SE 6 | 10.00 | Clear | SKC | 91.4 | 32 | 12% | 87 | 29.88 | 0.0 | ||||||
| 09 | 08:48 | Calm | 10.00 | Clear | SKC | 86 | 39.2 | 19% | 83 | 29.89 | 0.0 | ||||||
| 09 | 07:40 | Calm | 10.00 | Clear | SKC | 75.2 | 41 | 29% | 77 | 29.89 | 1010.4 | ||||||
| 09 | 06:47 | Calm | 10.00 | Clear | SKC | 68 | 41 | 38% | 29.89 | 0.0 | |||||||
| 09 | 05:48 | Calm | 10.00 | Clear | SKC | 62.6 | 42.8 | 49% | 29.88 | 0.0 | |||||||
| 09 | 05:08 | Calm | 10.00 | Clear | SKC | 66.2 | 42.8 | 43% | 29.86 | 0.0 | |||||||
| 08 | 21:51 | W 7 | 10.00 | Partly Cloudy | SCT250 | 73.4 | 48.2 | 41% | 29.89 | 0.0 | |||||||
| 08 | 20:41 | Calm | 10.00 | Partly Cloudy | SCT250 | 75.2 | 46.4 | 36% | 77 | 29.87 | 0.0 | ||||||
| 08 | 19:47 | SE 9 | 10.00 | Partly Cloudy | SCT250 | 77 | 44.6 | 32% | 78 | 29.86 | 1009.0 | ||||||
| 08 | 18:51 | SE 9 | 10.00 | Partly Cloudy | SCT250 | 78.8 | 48.2 | 34% | 79 | 29.85 | 0.0 | ||||||
| 08 | 17:45 | SE 17 | 10.00 | Partly Cloudy | SCT250 | 80.6 | 50 | 34% | 80 | 29.84 | 0.0 | ||||||
| 08 | 16:50 | SE 14 | 10.00 | Partly Cloudy | FEW160 SCT250 | 84.2 | 50 | 31% | 82 | 29.84 | 1008.4 | ||||||
| 08 | 15:54 | SE 12 | 10.00 | Partly Cloudy | SCT250 | 84.2 | 51.8 | 33% | 82 | 29.84 | 0.0 | ||||||
| 08 | 14:45 | SE 18 | 10.00 | Clear | SKC | 86 | 53.6 | 33% | 84 | 29.85 | 0.0 | ||||||
| 08 | 13:45 | SE 14 | 10.00 | Clear | SKC | 86 | 55.4 | 35% | 85 | 29.87 | 1009.2 | ||||||
| 08 | 12:55 | SE 16 | 10.00 | Clear | SKC | 86 | 55.4 | 35% | 85 | 29.88 | 0.0 | ||||||
| 08 | 11:44 | SE 12 | 10.00 | Clear | SKC | 87.8 | 53.6 | 31% | 86 | 29.9 | 0.0 | ||||||
| 08 | 10:45 | N 6 | 10.00 | Clear | SKC | 89.6 | 30.2 | 12% | 86 | 29.91 | 1010.8 | ||||||
| 08 | 09:47 | N 14 | 10.00 | Clear | SKC | 87.8 | 30.2 | 13% | 84 | 29.93 | 0.0 | ||||||
| 08 | 08:42 | N 14 | 10.00 | Clear | SKC | 84.2 | 39.2 | 20% | 81 | 29.93 | 0.0 | ||||||
| 08 | 07:45 | N 9 | 10.00 | Clear | SKC | 78.8 | 44.6 | 30% | 79 | 29.93 | 1011.7 | ||||||
| 08 | 06:45 | NW 5 | 10.00 | Clear | SKC | 69.8 | 48.2 | 46% | 29.93 | 0.0 | |||||||
| 08 | 05:48 | W 9 | 10.00 | A Few Clouds | FEW120 | 68 | 50 | 53% | 29.92 | 0.0 | |||||||
| 08 | 04:51 | NW 8 | 10.00 | Partly Cloudy | SCT250 | 69.8 | 55.4 | 60% | 29.91 | 1010.8 | |||||||
| 08 | 03:47 | W 6 | 10.00 | Partly Cloudy | SCT250 | 68 | 53.6 | 60% | 29.9 | 0.0 | |||||||
| 08 | 02:44 | W 7 | 10.00 | Partly Cloudy | SCT250 | 69.8 | 59 | 69% | 29.9 | 0.0 | |||||||
| 08 | 01:40 | NW 12 | 10.00 | Partly Cloudy | SCT250 | 69.8 | 60.8 | 73% | 29.91 | 0.0 | |||||||
| 08 | 00:45 | NW 6 | 10.00 | Partly Cloudy | SCT250 | 71.6 | 60.8 | 69% | 29.93 | 0.0 | |||||||
| 07 | 23:40 | W 6 | 10.00 | Partly Cloudy | SCT250 | 71.6 | 60.8 | 69% | 29.94 | 0.0 | |||||||
| 07 | 22:55 | W 5 | 10.00 | Partly Cloudy | SCT250 | 71.6 | 60.8 | 69% | 29.95 | 0.0 | |||||||
| 07 | 21:57 | W 5 | 10.00 | Partly Cloudy | SCT250 | 71.6 | 60.8 | 69% | 29.95 | 0.0 | |||||||
| 07 | 20:41 | Calm | 10.00 | Partly Cloudy | SCT250 | 73.4 | 60.8 | 65% | 29.94 | 0.0 | |||||||
| 07 | 19:41 | S 6 | 10.00 | Partly Cloudy | SCT250 | 75.2 | 60.8 | 61% | 77 | 29.93 | 1011.4 | ||||||
| 07 | 18:55 | SE 7 | 10.00 | Partly Cloudy | FEW160 SCT250 | 77 | 62.6 | 61% | 79 | 29.91 | 0.0 | ||||||
| 07 | 17:50 | E 12 | 10.00 | Mostly Cloudy | SCT160 BKN250 | 78.8 | 60.8 | 54% | 80 | 29.9 | 0.0 | ||||||
| 07 | 16:47 | E 12 | 10.00 | Mostly Cloudy | SCT160 BKN250 | 78.8 | 59 | 51% | 80 | 29.89 | 1010.2 | ||||||
| 07 | 15:41 | SE 17 | 10.00 | Mostly Cloudy | FEW040 SCT160 BKN250 | 80.6 | 60.8 | 51% | 81 | 29.9 | 0.0 | ||||||
| 07 | 14:48 | SE 16 | 10.00 | Mostly Cloudy | FEW100 BKN250 | 80.6 | 62.6 | 54% | 82 | 29.91 | 0.0 | ||||||
| 07 | 13:48 | SE 20 | 10.00 | Mostly Cloudy | FEW040 FEW100 BKN250 | 84.2 | 64.4 | 51% | 86 | 29.91 | 1010.8 | ||||||
| 07 | 12:41 | SE 16 | 10.00 | Partly Cloudy | FEW100 SCT250 | 84.2 | 62.6 | 48% | 85 | 29.93 | 0.0 | ||||||
| 07 | 11:48 | SE 16 | 10.00 | Mostly Cloudy | SCT100 BKN250 | 84.2 | 64.4 | 51% | 86 | 29.94 | 0.0 | ||||||
| 07 | 10:50 | S 6 | 10.00 | Partly Cloudy | FEW100 SCT250 | 86 | 57.2 | 38% | 85 | 29.94 | 1011.9 | ||||||
| 07 | 09:44 | N 5 | 10.00 | A Few Clouds | FEW250 | 82.4 | 60.8 | 48% | 83 | 29.96 | 0.0 | ||||||
| 07 | 08:43 | NW 9 | 10.00 | Partly Cloudy | SCT120 SCT250 | 77 | 62.6 | 61% | 79 | 29.97 | 0.0 | ||||||
| 07 | 07:45 | NW 9 | 10.00 | Partly Cloudy | SCT120 SCT250 | 75.2 | 64.4 | 69% | 77 | 29.96 | 1012.5 | ||||||
| 07 | 06:45 | W 5 | 10.00 | Partly Cloudy | SCT120 SCT250 | 73.4 | 64.4 | 74% | 29.96 | 0.0 | |||||||
| 07 | 05:48 | NW 5 | 10.00 | Mostly Cloudy | BKN120 BKN250 | 73.4 | 62.6 | 69% | 29.93 | 0.0 | |||||||
| 07 | 04:40 | W 6 | 10.00 | Mostly Cloudy | BKN250 | 73.4 | 62.6 | 69% | 29.91 | 1010.8 | |||||||
| 07 | 03:42 | NW 5 | 10.00 | Mostly Cloudy | BKN250 | 73.4 | 59 | 61% | 29.91 | 0.0 | |||||||
| 07 | 02:42 | NW 5 | 10.00 | Mostly Cloudy | BKN200 | 73.4 | 62.6 | 69% | 29.9 | 0.0 | |||||||
| 07 | 01:40 | W 5 | 10.00 | Mostly Cloudy | BKN250 | 73.4 | 64.4 | 74% | 29.91 | 0.0 | |||||||
| 07 | 00:41 | W 3 | 10.00 | Mostly Cloudy | BKN200 | 73.4 | 64.4 | 74% | 29.93 | 0.0 | |||||||
| 06 | 23:40 | Calm | 10.00 | Partly Cloudy | SCT200 | 73.4 | 64.4 | 74% | 29.95 | 0.0 | |||||||
| 06 | 22:42 | Calm | 10.00 | A Few Clouds | FEW200 | 75.2 | 64.4 | 69% | 77 | 29.96 | 1012.2 | ||||||
| 06 | 21:43 | SE 2 | 10.00 | Partly Cloudy | SCT200 | 75.2 | 66.2 | 74% | 77 | 29.96 | 0.0 | ||||||
| 06 | 20:43 | SE 7 | 10.00 | A Few Clouds | FEW100 FEW200 | 77 | 66.2 | 69% | 79 | 29.96 | 0.0 | ||||||
| 06 | 19:43 | S 3 | 10.00 | Mostly Cloudy | FEW100 BKN200 | 77 | 66.2 | 69% | 79 | 29.94 | 1011.9 | ||||||
| 06 | 18:44 | SE 9 | 10.00 | Partly Cloudy | SCT100 SCT200 | 78.8 | 64.4 | 61% | 81 | 29.94 | 0.0 | ||||||
| 06 | 17:50 | SE 10 | 10.00 | Partly Cloudy | SCT100 SCT200 | 78.8 | 64.4 | 61% | 81 | 29.93 | 0.0 | ||||||
| Date | Time (mst) | Wind (mph) | Vis. (mi.) | Weather | Sky Cond. | Air | Dwpt | Max. | Min. | Relative Humidity | Wind Chill (°F) | Heat Index (°F) | altimeter (in) | sea level (mb) | 1 hr | 3 hr | 6 hr |
| 6 hour | |||||||||||||||||
| Temperature (ºF) | Pressure | Precipitation (in) | |||||||||||||||